sensor_id;sensor_type;location;lat;lon;timestamp;P1;durP1;ratioP1;P2;durP2;ratioP2
39864;SDS011;25538;48.392;9.976;2022-10-16T00:01:04;6.38;;;5.90;;
39864;SDS011;25538;48.392;9.976;2022-10-16T00:03:33;6.72;;;6.13;;
39864;SDS011;25538;48.392;9.976;2022-10-16T00:06:00;6.20;;;5.72;;
39864;SDS011;25538;48.392;9.976;2022-10-16T00:08:27;5.22;;;4.82;;
39864;SDS011;25538;48.392;9.976;2022-10-16T00:10:58;6.20;;;5.70;;
39864;SDS011;25538;48.392;9.976;2022-10-16T00:13:28;6.13;;;5.63;;
39864;SDS011;25538;48.392;9.976;2022-10-16T00:15:55;6.30;;;5.85;;
39864;SDS011;25538;48.392;9.976;2022-10-16T00:18:22;7.35;;;6.57;;
39864;SDS011;25538;48.392;9.976;2022-10-16T00:20:48;6.35;;;5.82;;
39864;SDS011;25538;48.392;9.976;2022-10-16T00:23:14;6.33;;;5.83;;
39864;SDS011;25538;48.392;9.976;2022-10-16T00:25:40;5.90;;;5.50;;
39864;SDS011;25538;48.392;9.976;2022-10-16T00:28:06;5.90;;;5.50;;
39864;SDS011;25538;48.392;9.976;2022-10-16T00:30:32;7.07;;;6.43;;
39864;SDS011;25538;48.392;9.976;2022-10-16T00:32:58;6.70;;;6.20;;
39864;SDS011;25538;48.392;9.976;2022-10-16T00:35:24;9.40;;;7.37;;
39864;SDS011;25538;48.392;9.976;2022-10-16T00:37:50;6.90;;;6.40;;
39864;SDS011;25538;48.392;9.976;2022-10-16T00:40:16;6.30;;;5.87;;
39864;SDS011;25538;48.392;9.976;2022-10-16T00:42:42;6.72;;;6.10;;
39864;SDS011;25538;48.392;9.976;2022-10-16T00:45:08;6.90;;;6.30;;
39864;SDS011;25538;48.392;9.976;2022-10-16T00:47:36;6.72;;;6.20;;
39864;SDS011;25538;48.392;9.976;2022-10-16T00:50:13;7.15;;;6.30;;
39864;SDS011;25538;48.392;9.976;2022-10-16T00:52:47;5.93;;;5.43;;
39864;SDS011;25538;48.392;9.976;2022-10-16T00:55:15;6.30;;;5.80;;
39864;SDS011;25538;48.392;9.976;2022-10-16T00:57:42;7.88;;;6.05;;
39864;SDS011;25538;48.392;9.976;2022-10-16T01:00:10;7.22;;;6.63;;
39864;SDS011;25538;48.392;9.976;2022-10-16T01:02:43;8.05;;;6.72;;
39864;SDS011;25538;48.392;9.976;2022-10-16T01:05:09;7.93;;;7.13;;
39864;SDS011;25538;48.392;9.976;2022-10-16T01:07:43;9.73;;;7.00;;
39864;SDS011;25538;48.392;9.976;2022-10-16T01:10:33;6.78;;;6.22;;
39864;SDS011;25538;48.392;9.976;2022-10-16T01:15:37;7.63;;;7.03;;
39864;SDS011;25538;48.392;9.976;2022-10-16T01:21:09;10.70;;;8.45;;
39864;SDS011;25538;48.392;9.976;2022-10-16T01:32:05;7.25;;;6.65;;
39864;SDS011;25538;48.392;9.976;2022-10-16T01:34:51;7.28;;;6.70;;
39864;SDS011;25538;48.392;9.976;2022-10-16T01:37:28;6.45;;;5.90;;
39864;SDS011;25538;48.392;9.976;2022-10-16T01:39:57;8.10;;;7.45;;
39864;SDS011;25538;48.392;9.976;2022-10-16T01:42:27;7.78;;;7.28;;
39864;SDS011;25538;48.392;9.976;2022-10-16T01:44:59;8.70;;;7.43;;
39864;SDS011;25538;48.392;9.976;2022-10-16T01:47:26;8.75;;;7.38;;
39864;SDS011;25538;48.392;9.976;2022-10-16T01:49:55;7.38;;;6.25;;
39864;SDS011;25538;48.392;9.976;2022-10-16T01:52:24;7.60;;;7.10;;
39864;SDS011;25538;48.392;9.976;2022-10-16T01:54:53;7.82;;;6.90;;
39864;SDS011;25538;48.392;9.976;2022-10-16T01:57:21;6.40;;;6.00;;
39864;SDS011;25538;48.392;9.976;2022-10-16T01:59:52;7.22;;;6.70;;
39864;SDS011;25538;48.392;9.976;2022-10-16T02:02:21;7.28;;;6.68;;
39864;SDS011;25538;48.392;9.976;2022-10-16T02:04:58;7.63;;;6.93;;
39864;SDS011;25538;48.392;9.976;2022-10-16T02:07:41;7.93;;;7.32;;
39864;SDS011;25538;48.392;9.976;2022-10-16T02:10:07;8.00;;;7.30;;
39864;SDS011;25538;48.392;9.976;2022-10-16T02:12:35;7.68;;;7.00;;
39864;SDS011;25538;48.392;9.976;2022-10-16T02:15:05;7.20;;;6.70;;
39864;SDS011;25538;48.392;9.976;2022-10-16T02:17:31;7.38;;;6.78;;
39864;SDS011;25538;48.392;9.976;2022-10-16T02:19:58;9.57;;;7.15;;
39864;SDS011;25538;48.392;9.976;2022-10-16T02:22:42;7.82;;;7.10;;
39864;SDS011;25538;48.392;9.976;2022-10-16T02:27:46;8.02;;;6.65;;
39864;SDS011;25538;48.392;9.976;2022-10-16T02:32:47;7.32;;;6.57;;
39864;SDS011;25538;48.392;9.976;2022-10-16T02:35:15;7.72;;;7.03;;
39864;SDS011;25538;48.392;9.976;2022-10-16T02:37:43;7.45;;;6.80;;
39864;SDS011;25538;48.392;9.976;2022-10-16T02:40:11;10.48;;;9.52;;
39864;SDS011;25538;48.392;9.976;2022-10-16T02:42:38;9.20;;;8.57;;
39864;SDS011;25538;48.392;9.976;2022-10-16T02:45:05;8.10;;;7.50;;
39864;SDS011;25538;48.392;9.976;2022-10-16T02:47:32;8.57;;;7.97;;
39864;SDS011;25538;48.392;9.976;2022-10-16T02:49:58;8.73;;;7.70;;
39864;SDS011;25538;48.392;9.976;2022-10-16T02:52:24;9.30;;;8.45;;
39864;SDS011;25538;48.392;9.976;2022-10-16T02:54:50;8.63;;;7.82;;
39864;SDS011;25538;48.392;9.976;2022-10-16T02:57:17;9.00;;;8.10;;
39864;SDS011;25538;48.392;9.976;2022-10-16T02:59:43;8.57;;;7.65;;
39864;SDS011;25538;48.392;9.976;2022-10-16T03:02:10;7.20;;;6.60;;
39864;SDS011;25538;48.392;9.976;2022-10-16T03:04:36;7.82;;;7.20;;
39864;SDS011;25538;48.392;9.976;2022-10-16T03:07:02;7.28;;;6.75;;
39864;SDS011;25538;48.392;9.976;2022-10-16T03:09:29;7.30;;;6.80;;
39864;SDS011;25538;48.392;9.976;2022-10-16T03:11:55;9.40;;;6.80;;
39864;SDS011;25538;48.392;9.976;2022-10-16T03:14:21;6.77;;;6.37;;
39864;SDS011;25538;48.392;9.976;2022-10-16T03:16:46;6.60;;;6.10;;
39864;SDS011;25538;48.392;9.976;2022-10-16T03:19:12;7.67;;;6.90;;
39864;SDS011;25538;48.392;9.976;2022-10-16T03:21:38;7.00;;;6.43;;
39864;SDS011;25538;48.392;9.976;2022-10-16T03:24:04;6.80;;;6.20;;
39864;SDS011;25538;48.392;9.976;2022-10-16T03:26:30;7.43;;;6.72;;
39864;SDS011;25538;48.392;9.976;2022-10-16T03:28:56;6.80;;;6.30;;
39864;SDS011;25538;48.392;9.976;2022-10-16T03:31:22;7.20;;;6.60;;
39864;SDS011;25538;48.392;9.976;2022-10-16T03:33:48;7.33;;;6.60;;
39864;SDS011;25538;48.392;9.976;2022-10-16T03:36:14;7.27;;;6.67;;
39864;SDS011;25538;48.392;9.976;2022-10-16T03:38:40;7.57;;;6.77;;
39864;SDS011;25538;48.392;9.976;2022-10-16T03:41:05;8.33;;;6.90;;
39864;SDS011;25538;48.392;9.976;2022-10-16T03:43:33;8.35;;;7.65;;
39864;SDS011;25538;48.392;9.976;2022-10-16T03:45:59;7.97;;;7.35;;
39864;SDS011;25538;48.392;9.976;2022-10-16T03:48:25;7.32;;;6.68;;
39864;SDS011;25538;48.392;9.976;2022-10-16T03:50:50;7.50;;;6.90;;
39864;SDS011;25538;48.392;9.976;2022-10-16T03:53:17;7.75;;;7.15;;
39864;SDS011;25538;48.392;9.976;2022-10-16T03:55:43;7.30;;;6.75;;
39864;SDS011;25538;48.392;9.976;2022-10-16T03:58:10;6.68;;;6.07;;
39864;SDS011;25538;48.392;9.976;2022-10-16T04:00:40;6.25;;;5.85;;
39864;SDS011;25538;48.392;9.976;2022-10-16T04:03:09;6.75;;;6.25;;
39864;SDS011;25538;48.392;9.976;2022-10-16T04:05:35;6.43;;;6.00;;
39864;SDS011;25538;48.392;9.976;2022-10-16T04:08:01;6.37;;;5.87;;
39864;SDS011;25538;48.392;9.976;2022-10-16T04:10:28;6.30;;;5.90;;
39864;SDS011;25538;48.392;9.976;2022-10-16T04:12:54;7.30;;;6.10;;
39864;SDS011;25538;48.392;9.976;2022-10-16T04:15:21;6.10;;;5.57;;
39864;SDS011;25538;48.392;9.976;2022-10-16T04:17:51;11.05;;;6.70;;
39864;SDS011;25538;48.392;9.976;2022-10-16T04:20:17;6.85;;;6.18;;
39864;SDS011;25538;48.392;9.976;2022-10-16T04:22:43;7.50;;;6.75;;
39864;SDS011;25538;48.392;9.976;2022-10-16T04:25:10;8.00;;;7.30;;
39864;SDS011;25538;48.392;9.976;2022-10-16T04:27:37;9.07;;;8.32;;
39864;SDS011;25538;48.392;9.976;2022-10-16T04:30:04;7.10;;;6.40;;
39864;SDS011;25538;48.392;9.976;2022-10-16T04:32:30;8.43;;;7.72;;
39864;SDS011;25538;48.392;9.976;2022-10-16T04:34:56;8.87;;;8.17;;
39864;SDS011;25538;48.392;9.976;2022-10-16T04:37:26;7.27;;;6.57;;
39864;SDS011;25538;48.392;9.976;2022-10-16T04:39:53;8.77;;;7.97;;
39864;SDS011;25538;48.392;9.976;2022-10-16T04:42:19;7.25;;;6.75;;
39864;SDS011;25538;48.392;9.976;2022-10-16T04:44:46;7.70;;;6.97;;
39864;SDS011;25538;48.392;9.976;2022-10-16T04:47:12;9.20;;;6.80;;
39864;SDS011;25538;48.392;9.976;2022-10-16T04:49:39;7.38;;;6.80;;
39864;SDS011;25538;48.392;9.976;2022-10-16T04:52:05;7.40;;;6.80;;
39864;SDS011;25538;48.392;9.976;2022-10-16T04:54:31;8.50;;;7.80;;
39864;SDS011;25538;48.392;9.976;2022-10-16T04:56:57;7.90;;;7.20;;
39864;SDS011;25538;48.392;9.976;2022-10-16T04:59:23;7.90;;;7.30;;
39864;SDS011;25538;48.392;9.976;2022-10-16T05:01:49;6.95;;;6.45;;
39864;SDS011;25538;48.392;9.976;2022-10-16T05:04:15;9.30;;;7.27;;
39864;SDS011;25538;48.392;9.976;2022-10-16T05:06:41;7.50;;;6.90;;
39864;SDS011;25538;48.392;9.976;2022-10-16T05:09:07;8.02;;;7.32;;
39864;SDS011;25538;48.392;9.976;2022-10-16T05:11:34;8.43;;;7.25;;
39864;SDS011;25538;48.392;9.976;2022-10-16T05:14:00;7.63;;;7.00;;
39864;SDS011;25538;48.392;9.976;2022-10-16T05:16:26;10.82;;;7.07;;
39864;SDS011;25538;48.392;9.976;2022-10-16T05:18:52;7.47;;;6.97;;
39864;SDS011;25538;48.392;9.976;2022-10-16T05:21:19;10.07;;;6.80;;
39864;SDS011;25538;48.392;9.976;2022-10-16T05:23:45;8.93;;;7.90;;
39864;SDS011;25538;48.392;9.976;2022-10-16T05:26:11;9.47;;;8.57;;
39864;SDS011;25538;48.392;9.976;2022-10-16T05:28:37;10.40;;;9.70;;
39864;SDS011;25538;48.392;9.976;2022-10-16T05:31:04;13.50;;;11.87;;
39864;SDS011;25538;48.392;9.976;2022-10-16T05:33:31;12.95;;;9.10;;
39864;SDS011;25538;48.392;9.976;2022-10-16T05:36:04;10.00;;;9.10;;
39864;SDS011;25538;48.392;9.976;2022-10-16T05:38:33;8.38;;;7.88;;
39864;SDS011;25538;48.392;9.976;2022-10-16T05:40:59;8.23;;;7.43;;
39864;SDS011;25538;48.392;9.976;2022-10-16T05:43:27;8.97;;;8.17;;
39864;SDS011;25538;48.392;9.976;2022-10-16T05:46:00;8.40;;;7.80;;
39864;SDS011;25538;48.392;9.976;2022-10-16T05:48:28;12.35;;;11.25;;
39864;SDS011;25538;48.392;9.976;2022-10-16T05:51:01;7.95;;;7.15;;
39864;SDS011;25538;48.392;9.976;2022-10-16T05:53:30;8.77;;;7.97;;
39864;SDS011;25538;48.392;9.976;2022-10-16T05:55:57;8.15;;;7.55;;
39864;SDS011;25538;48.392;9.976;2022-10-16T05:58:24;7.80;;;7.10;;
39864;SDS011;25538;48.392;9.976;2022-10-16T06:00:54;8.98;;;8.13;;
39864;SDS011;25538;48.392;9.976;2022-10-16T06:03:20;8.50;;;7.80;;
39864;SDS011;25538;48.392;9.976;2022-10-16T06:05:46;9.63;;;8.73;;
39864;SDS011;25538;48.392;9.976;2022-10-16T06:08:12;8.57;;;7.87;;
39864;SDS011;25538;48.392;9.976;2022-10-16T06:10:38;8.80;;;8.20;;
39864;SDS011;25538;48.392;9.976;2022-10-16T06:13:04;7.77;;;7.07;;
39864;SDS011;25538;48.392;9.976;2022-10-16T06:15:30;8.97;;;8.07;;
39864;SDS011;25538;48.392;9.976;2022-10-16T06:17:56;10.03;;;6.60;;
39864;SDS011;25538;48.392;9.976;2022-10-16T06:20:22;10.50;;;9.50;;
39864;SDS011;25538;48.392;9.976;2022-10-16T06:22:47;8.20;;;7.40;;
39864;SDS011;25538;48.392;9.976;2022-10-16T06:25:13;8.90;;;7.30;;
39864;SDS011;25538;48.392;9.976;2022-10-16T06:27:39;8.20;;;7.60;;
39864;SDS011;25538;48.392;9.976;2022-10-16T06:30:06;7.38;;;6.88;;
39864;SDS011;25538;48.392;9.976;2022-10-16T06:32:33;8.60;;;7.80;;
39864;SDS011;25538;48.392;9.976;2022-10-16T06:34:59;8.63;;;7.53;;
39864;SDS011;25538;48.392;9.976;2022-10-16T06:37:24;8.80;;;8.10;;
39864;SDS011;25538;48.392;9.976;2022-10-16T06:39:51;8.80;;;7.90;;
39864;SDS011;25538;48.392;9.976;2022-10-16T06:42:17;8.10;;;7.30;;
39864;SDS011;25538;48.392;9.976;2022-10-16T06:44:43;7.75;;;7.15;;
39864;SDS011;25538;48.392;9.976;2022-10-16T06:47:10;7.40;;;6.78;;
39864;SDS011;25538;48.392;9.976;2022-10-16T06:49:36;6.20;;;5.70;;
39864;SDS011;25538;48.392;9.976;2022-10-16T06:52:02;6.73;;;6.13;;
39864;SDS011;25538;48.392;9.976;2022-10-16T06:54:28;8.93;;;6.65;;
39864;SDS011;25538;48.392;9.976;2022-10-16T06:56:54;6.25;;;5.75;;
39864;SDS011;25538;48.392;9.976;2022-10-16T06:59:20;6.67;;;6.07;;
39864;SDS011;25538;48.392;9.976;2022-10-16T07:01:47;7.13;;;6.13;;
39864;SDS011;25538;48.392;9.976;2022-10-16T07:04:13;6.00;;;5.50;;
39864;SDS011;25538;48.392;9.976;2022-10-16T07:06:39;5.80;;;5.50;;
39864;SDS011;25538;48.392;9.976;2022-10-16T07:09:06;6.05;;;5.55;;
39864;SDS011;25538;48.392;9.976;2022-10-16T07:11:38;6.47;;;5.75;;
39864;SDS011;25538;48.392;9.976;2022-10-16T07:14:04;6.30;;;5.30;;
39864;SDS011;25538;48.392;9.976;2022-10-16T07:16:37;8.18;;;7.47;;
39864;SDS011;25538;48.392;9.976;2022-10-16T07:19:03;6.93;;;6.23;;
39864;SDS011;25538;48.392;9.976;2022-10-16T07:21:30;6.67;;;6.10;;
39864;SDS011;25538;48.392;9.976;2022-10-16T07:24:00;6.93;;;6.35;;
39864;SDS011;25538;48.392;9.976;2022-10-16T07:26:28;7.07;;;6.47;;
39864;SDS011;25538;48.392;9.976;2022-10-16T07:28:55;7.00;;;6.53;;
39864;SDS011;25538;48.392;9.976;2022-10-16T07:31:22;8.27;;;7.65;;
39864;SDS011;25538;48.392;9.976;2022-10-16T07:33:49;8.57;;;7.70;;
39864;SDS011;25538;48.392;9.976;2022-10-16T07:36:16;8.65;;;7.43;;
39864;SDS011;25538;48.392;9.976;2022-10-16T07:38:43;7.55;;;6.95;;
39864;SDS011;25538;48.392;9.976;2022-10-16T07:41:14;8.02;;;6.72;;
39864;SDS011;25538;48.392;9.976;2022-10-16T07:43:45;7.82;;;7.10;;
39864;SDS011;25538;48.392;9.976;2022-10-16T07:46:15;5.85;;;5.35;;
39864;SDS011;25538;48.392;9.976;2022-10-16T07:48:42;6.40;;;5.90;;
39864;SDS011;25538;48.392;9.976;2022-10-16T07:51:11;5.93;;;5.40;;
39864;SDS011;25538;48.392;9.976;2022-10-16T07:53:37;7.97;;;6.73;;
39864;SDS011;25538;48.392;9.976;2022-10-16T07:56:04;6.10;;;5.70;;
39864;SDS011;25538;48.392;9.976;2022-10-16T07:58:31;6.23;;;5.73;;
39864;SDS011;25538;48.392;9.976;2022-10-16T08:00:58;7.00;;;6.40;;
39864;SDS011;25538;48.392;9.976;2022-10-16T08:03:27;5.80;;;5.40;;
39864;SDS011;25538;48.392;9.976;2022-10-16T08:05:53;6.57;;;6.07;;
39864;SDS011;25538;48.392;9.976;2022-10-16T08:08:21;6.70;;;6.10;;
39864;SDS011;25538;48.392;9.976;2022-10-16T08:10:47;6.50;;;6.03;;
39864;SDS011;25538;48.392;9.976;2022-10-16T08:13:13;6.60;;;6.00;;
39864;SDS011;25538;48.392;9.976;2022-10-16T08:15:40;6.97;;;6.37;;
39864;SDS011;25538;48.392;9.976;2022-10-16T08:18:07;10.60;;;6.90;;
39864;SDS011;25538;48.392;9.976;2022-10-16T08:20:34;6.53;;;5.97;;
39864;SDS011;25538;48.392;9.976;2022-10-16T08:23:00;7.53;;;6.77;;
39864;SDS011;25538;48.392;9.976;2022-10-16T08:25:26;6.10;;;5.40;;
39864;SDS011;25538;48.392;9.976;2022-10-16T08:27:52;5.73;;;5.33;;
39864;SDS011;25538;48.392;9.976;2022-10-16T08:30:19;6.50;;;4.80;;
39864;SDS011;25538;48.392;9.976;2022-10-16T08:32:47;6.40;;;5.20;;
39864;SDS011;25538;48.392;9.976;2022-10-16T08:35:13;6.43;;;5.83;;
39864;SDS011;25538;48.392;9.976;2022-10-16T08:37:40;7.50;;;5.53;;
39864;SDS011;25538;48.392;9.976;2022-10-16T08:40:07;6.77;;;6.20;;
39864;SDS011;25538;48.392;9.976;2022-10-16T08:48:33;6.17;;;5.70;;
39864;SDS011;25538;48.392;9.976;2022-10-16T08:51:03;6.03;;;5.63;;
39864;SDS011;25538;48.392;9.976;2022-10-16T08:53:30;7.30;;;5.40;;
39864;SDS011;25538;48.392;9.976;2022-10-16T08:56:03;6.00;;;5.50;;
39864;SDS011;25538;48.392;9.976;2022-10-16T08:58:29;6.70;;;6.20;;
39864;SDS011;25538;48.392;9.976;2022-10-16T09:01:00;6.57;;;5.97;;
39864;SDS011;25538;48.392;9.976;2022-10-16T09:20:26;8.60;;;7.33;;
39864;SDS011;25538;48.392;9.976;2022-10-16T09:23:36;5.00;;;4.70;;
39864;SDS011;25538;48.392;9.976;2022-10-16T09:25:43;5.27;;;4.80;;
39864;SDS011;25538;48.392;9.976;2022-10-16T09:28:13;6.40;;;4.33;;
39864;SDS011;25538;48.392;9.976;2022-10-16T09:30:39;5.23;;;4.73;;
39864;SDS011;25538;48.392;9.976;2022-10-16T09:33:05;6.80;;;4.60;;
39864;SDS011;25538;48.392;9.976;2022-10-16T09:35:37;4.80;;;4.40;;
39864;SDS011;25538;48.392;9.976;2022-10-16T09:38:22;4.73;;;4.30;;
39864;SDS011;25538;48.392;9.976;2022-10-16T09:41:00;5.07;;;3.87;;
39864;SDS011;25538;48.392;9.976;2022-10-16T09:43:29;6.00;;;4.53;;
39864;SDS011;25538;48.392;9.976;2022-10-16T09:46:22;5.07;;;4.63;;
39864;SDS011;25538;48.392;9.976;2022-10-16T09:48:55;5.47;;;4.97;;
39864;SDS011;25538;48.392;9.976;2022-10-16T09:54:00;3.73;;;3.40;;
39864;SDS011;25538;48.392;9.976;2022-10-16T09:56:38;4.30;;;4.00;;
39864;SDS011;25538;48.392;9.976;2022-10-16T10:01:48;4.00;;;3.80;;
39864;SDS011;25538;48.392;9.976;2022-10-16T10:04:15;3.93;;;3.63;;
39864;SDS011;25538;48.392;9.976;2022-10-16T10:06:45;3.93;;;3.63;;
39864;SDS011;25538;48.392;9.976;2022-10-16T10:16:47;5.70;;;3.77;;
39864;SDS011;25538;48.392;9.976;2022-10-16T10:19:15;4.40;;;3.43;;
39864;SDS011;25538;48.392;9.976;2022-10-16T10:21:43;6.40;;;3.70;;
39864;SDS011;25538;48.392;9.976;2022-10-16T10:24:12;3.10;;;2.90;;
39864;SDS011;25538;48.392;9.976;2022-10-16T10:32:12;2.77;;;2.57;;
39864;SDS011;25538;48.392;9.976;2022-10-16T10:34:59;4.77;;;3.03;;
39864;SDS011;25538;48.392;9.976;2022-10-16T10:40:29;3.50;;;3.30;;
39864;SDS011;25538;48.392;9.976;2022-10-16T10:45:27;2.93;;;2.73;;
39864;SDS011;25538;48.392;9.976;2022-10-16T10:50:57;3.03;;;2.83;;
39864;SDS011;25538;48.392;9.976;2022-10-16T10:59:19;3.43;;;3.13;;
39864;SDS011;25538;48.392;9.976;2022-10-16T11:01:59;5.27;;;3.00;;
39864;SDS011;25538;48.392;9.976;2022-10-16T11:07:14;3.73;;;3.00;;
39864;SDS011;25538;48.392;9.976;2022-10-16T11:09:51;3.83;;;3.53;;
39864;SDS011;25538;48.392;9.976;2022-10-16T11:12:22;2.73;;;2.63;;
39864;SDS011;25538;48.392;9.976;2022-10-16T11:17:49;3.03;;;2.80;;
39864;SDS011;25538;48.392;9.976;2022-10-16T11:20:18;3.70;;;3.40;;
39864;SDS011;25538;48.392;9.976;2022-10-16T11:23:31;4.90;;;4.50;;
39864;SDS011;25538;48.392;9.976;2022-10-16T11:25:43;3.33;;;2.97;;
39864;SDS011;25538;48.392;9.976;2022-10-16T11:30:47;4.00;;;3.70;;
39864;SDS011;25538;48.392;9.976;2022-10-16T11:33:23;5.30;;;3.00;;
39864;SDS011;25538;48.392;9.976;2022-10-16T11:38:28;3.73;;;3.30;;
39864;SDS011;25538;48.392;9.976;2022-10-16T11:44:06;2.90;;;2.70;;
39864;SDS011;25538;48.392;9.976;2022-10-16T11:46:42;2.40;;;2.20;;
39864;SDS011;25538;48.392;9.976;2022-10-16T11:49:15;5.53;;;2.77;;
39864;SDS011;25538;48.392;9.976;2022-10-16T11:51:48;4.03;;;2.63;;
39864;SDS011;25538;48.392;9.976;2022-10-16T11:54:39;2.60;;;2.13;;
39864;SDS011;25538;48.392;9.976;2022-10-16T11:57:20;2.20;;;2.10;;
39864;SDS011;25538;48.392;9.976;2022-10-16T11:59:51;2.63;;;1.90;;
39864;SDS011;25538;48.392;9.976;2022-10-16T12:02:28;2.53;;;2.00;;
39864;SDS011;25538;48.392;9.976;2022-10-16T12:05:05;3.77;;;2.30;;
39864;SDS011;25538;48.392;9.976;2022-10-16T12:08:04;2.50;;;2.30;;
39864;SDS011;25538;48.392;9.976;2022-10-16T12:10:40;2.27;;;2.17;;
39864;SDS011;25538;48.392;9.976;2022-10-16T12:13:30;2.40;;;2.00;;
39864;SDS011;25538;48.392;9.976;2022-10-16T12:16:19;1.83;;;1.70;;
39864;SDS011;25538;48.392;9.976;2022-10-16T12:18:47;4.43;;;2.10;;
39864;SDS011;25538;48.392;9.976;2022-10-16T12:21:14;2.00;;;1.90;;
39864;SDS011;25538;48.392;9.976;2022-10-16T12:23:51;3.40;;;1.87;;
39864;SDS011;25538;48.392;9.976;2022-10-16T12:29:09;1.80;;;1.60;;
39864;SDS011;25538;48.392;9.976;2022-10-16T12:31:54;1.90;;;1.80;;
39864;SDS011;25538;48.392;9.976;2022-10-16T12:34:21;1.83;;;1.73;;
39864;SDS011;25538;48.392;9.976;2022-10-16T12:36:54;1.83;;;1.60;;
39864;SDS011;25538;48.392;9.976;2022-10-16T12:39:22;4.50;;;2.30;;
39864;SDS011;25538;48.392;9.976;2022-10-16T12:42:03;2.30;;;1.50;;
39864;SDS011;25538;48.392;9.976;2022-10-16T12:44:32;2.47;;;1.80;;
39864;SDS011;25538;48.392;9.976;2022-10-16T12:47:02;1.43;;;1.30;;
39864;SDS011;25538;48.392;9.976;2022-10-16T12:51:54;2.20;;;1.97;;
39864;SDS011;25538;48.392;9.976;2022-10-16T12:54:22;1.80;;;1.70;;
39864;SDS011;25538;48.392;9.976;2022-10-16T13:05:05;2.63;;;1.70;;
39864;SDS011;25538;48.392;9.976;2022-10-16T13:23:36;1.80;;;1.63;;
39864;SDS011;25538;48.392;9.976;2022-10-16T13:29:10;1.83;;;1.73;;
39864;SDS011;25538;48.392;9.976;2022-10-16T13:31:37;1.70;;;1.60;;
39864;SDS011;25538;48.392;9.976;2022-10-16T13:34:04;1.43;;;1.33;;
39864;SDS011;25538;48.392;9.976;2022-10-16T13:36:45;3.13;;;1.83;;
39864;SDS011;25538;48.392;9.976;2022-10-16T13:39:20;1.67;;;1.57;;
39864;SDS011;25538;48.392;9.976;2022-10-16T13:42:04;1.57;;;1.57;;
39864;SDS011;25538;48.392;9.976;2022-10-16T13:44:34;1.90;;;1.67;;
39864;SDS011;25538;48.392;9.976;2022-10-16T13:47:04;2.23;;;2.00;;
39864;SDS011;25538;48.392;9.976;2022-10-16T13:49:30;1.73;;;1.63;;
39864;SDS011;25538;48.392;9.976;2022-10-16T13:51:57;2.50;;;1.43;;
39864;SDS011;25538;48.392;9.976;2022-10-16T13:54:25;1.40;;;1.40;;
39864;SDS011;25538;48.392;9.976;2022-10-16T13:56:54;1.90;;;1.80;;
39864;SDS011;25538;48.392;9.976;2022-10-16T13:59:27;1.87;;;1.77;;
39864;SDS011;25538;48.392;9.976;2022-10-16T14:01:59;1.70;;;1.50;;
39864;SDS011;25538;48.392;9.976;2022-10-16T14:04:45;1.73;;;1.63;;
39864;SDS011;25538;48.392;9.976;2022-10-16T14:07:18;1.53;;;1.43;;
39864;SDS011;25538;48.392;9.976;2022-10-16T14:09:51;1.80;;;1.70;;
39864;SDS011;25538;48.392;9.976;2022-10-16T14:12:18;1.47;;;1.37;;
39864;SDS011;25538;48.392;9.976;2022-10-16T14:14:46;1.90;;;1.47;;
39864;SDS011;25538;48.392;9.976;2022-10-16T14:17:15;2.40;;;1.73;;
39864;SDS011;25538;48.392;9.976;2022-10-16T14:19:47;4.10;;;1.70;;
39864;SDS011;25538;48.392;9.976;2022-10-16T14:25:00;4.37;;;2.50;;
39864;SDS011;25538;48.392;9.976;2022-10-16T14:27:35;2.90;;;2.70;;
39864;SDS011;25538;48.392;9.976;2022-10-16T14:30:08;2.63;;;2.43;;
39864;SDS011;25538;48.392;9.976;2022-10-16T14:32:52;2.10;;;2.00;;
39864;SDS011;25538;48.392;9.976;2022-10-16T14:38:00;1.40;;;1.40;;
39864;SDS011;25538;48.392;9.976;2022-10-16T14:40:31;1.30;;;1.30;;
39864;SDS011;25538;48.392;9.976;2022-10-16T14:42:59;2.03;;;1.43;;
39864;SDS011;25538;48.392;9.976;2022-10-16T14:45:28;2.07;;;1.33;;
39864;SDS011;25538;48.392;9.976;2022-10-16T14:47:57;1.73;;;1.63;;
39864;SDS011;25538;48.392;9.976;2022-10-16T14:50:26;1.63;;;1.53;;
39864;SDS011;25538;48.392;9.976;2022-10-16T14:52:52;1.83;;;1.63;;
39864;SDS011;25538;48.392;9.976;2022-10-16T14:55:18;1.93;;;1.83;;
39864;SDS011;25538;48.392;9.976;2022-10-16T14:57:44;1.70;;;1.60;;
39864;SDS011;25538;48.392;9.976;2022-10-16T15:00:21;4.13;;;1.77;;
39864;SDS011;25538;48.392;9.976;2022-10-16T15:02:49;1.70;;;1.60;;
39864;SDS011;25538;48.392;9.976;2022-10-16T15:05:20;1.90;;;1.80;;
39864;SDS011;25538;48.392;9.976;2022-10-16T15:07:48;2.43;;;2.07;;
39864;SDS011;25538;48.392;9.976;2022-10-16T15:10:16;1.83;;;1.73;;
39864;SDS011;25538;48.392;9.976;2022-10-16T15:12:43;2.27;;;1.53;;
39864;SDS011;25538;48.392;9.976;2022-10-16T15:15:15;2.17;;;1.80;;
39864;SDS011;25538;48.392;9.976;2022-10-16T15:17:58;2.50;;;2.00;;
39864;SDS011;25538;48.392;9.976;2022-10-16T15:20:27;5.27;;;1.93;;
39864;SDS011;25538;48.392;9.976;2022-10-16T15:22:55;3.27;;;1.80;;
39864;SDS011;25538;48.392;9.976;2022-10-16T15:25:39;1.90;;;1.80;;
39864;SDS011;25538;48.392;9.976;2022-10-16T15:28:17;2.00;;;1.90;;
39864;SDS011;25538;48.392;9.976;2022-10-16T15:30:44;3.37;;;2.43;;
39864;SDS011;25538;48.392;9.976;2022-10-16T15:33:11;2.30;;;2.20;;
39864;SDS011;25538;48.392;9.976;2022-10-16T15:35:42;2.60;;;1.67;;
39864;SDS011;25538;48.392;9.976;2022-10-16T15:38:12;4.37;;;2.47;;
39864;SDS011;25538;48.392;9.976;2022-10-16T15:40:39;7.30;;;2.70;;
39864;SDS011;25538;48.392;9.976;2022-10-16T15:43:05;1.90;;;1.80;;
39864;SDS011;25538;48.392;9.976;2022-10-16T15:45:31;2.83;;;2.07;;
39864;SDS011;25538;48.392;9.976;2022-10-16T15:47:57;4.30;;;2.30;;
39864;SDS011;25538;48.392;9.976;2022-10-16T15:50:23;3.57;;;2.47;;
39864;SDS011;25538;48.392;9.976;2022-10-16T15:52:49;3.13;;;2.03;;
39864;SDS011;25538;48.392;9.976;2022-10-16T15:55:16;3.20;;;3.00;;
39864;SDS011;25538;48.392;9.976;2022-10-16T15:57:44;2.67;;;2.47;;
39864;SDS011;25538;48.392;9.976;2022-10-16T16:00:12;2.07;;;1.97;;
39864;SDS011;25538;48.392;9.976;2022-10-16T16:02:40;4.27;;;2.70;;
39864;SDS011;25538;48.392;9.976;2022-10-16T16:05:07;3.30;;;3.00;;
39864;SDS011;25538;48.392;9.976;2022-10-16T16:07:34;2.93;;;2.73;;
39864;SDS011;25538;48.392;9.976;2022-10-16T16:10:01;2.87;;;2.67;;
39864;SDS011;25538;48.392;9.976;2022-10-16T16:12:29;4.30;;;4.00;;
39864;SDS011;25538;48.392;9.976;2022-10-16T16:14:55;3.40;;;3.07;;
39864;SDS011;25538;48.392;9.976;2022-10-16T16:17:21;3.87;;;3.23;;
39864;SDS011;25538;48.392;9.976;2022-10-16T16:19:47;3.93;;;3.20;;
39864;SDS011;25538;48.392;9.976;2022-10-16T16:22:13;4.13;;;3.73;;
39864;SDS011;25538;48.392;9.976;2022-10-16T16:24:39;5.53;;;3.93;;
39864;SDS011;25538;48.392;9.976;2022-10-16T16:27:05;3.90;;;3.50;;
39864;SDS011;25538;48.392;9.976;2022-10-16T16:29:30;4.40;;;4.10;;
39864;SDS011;25538;48.392;9.976;2022-10-16T16:31:56;4.23;;;3.93;;
39864;SDS011;25538;48.392;9.976;2022-10-16T16:34:25;4.47;;;4.07;;
39864;SDS011;25538;48.392;9.976;2022-10-16T16:36:54;4.63;;;4.23;;
39864;SDS011;25538;48.392;9.976;2022-10-16T16:39:20;4.57;;;4.03;;
39864;SDS011;25538;48.392;9.976;2022-10-16T16:41:46;5.87;;;3.83;;
39864;SDS011;25538;48.392;9.976;2022-10-16T16:44:13;4.13;;;3.83;;
39864;SDS011;25538;48.392;9.976;2022-10-16T16:46:40;3.73;;;3.43;;
39864;SDS011;25538;48.392;9.976;2022-10-16T16:49:09;4.03;;;3.73;;
39864;SDS011;25538;48.392;9.976;2022-10-16T16:51:36;3.93;;;3.63;;
39864;SDS011;25538;48.392;9.976;2022-10-16T16:54:03;5.80;;;4.10;;
39864;SDS011;25538;48.392;9.976;2022-10-16T16:56:29;4.17;;;3.83;;
39864;SDS011;25538;48.392;9.976;2022-10-16T16:58:56;3.70;;;3.50;;
39864;SDS011;25538;48.392;9.976;2022-10-16T17:01:23;5.87;;;4.73;;
39864;SDS011;25538;48.392;9.976;2022-10-16T17:03:50;4.97;;;4.50;;
39864;SDS011;25538;48.392;9.976;2022-10-16T17:06:19;8.10;;;4.87;;